sensor_id;sensor_type;location;lat;lon;timestamp;P1;durP1;ratioP1;P2;durP2;ratioP2
10586;SDS011;5341;47.606;7.576;2023-12-04T00:00:43;15.57;;;12.18;;
10586;SDS011;5341;47.606;7.576;2023-12-04T00:03:10;17.77;;;13.93;;
10586;SDS011;5341;47.606;7.576;2023-12-04T00:05:41;18.55;;;13.25;;
10586;SDS011;5341;47.606;7.576;2023-12-04T00:08:09;16.92;;;12.93;;
10586;SDS011;5341;47.606;7.576;2023-12-04T00:10:37;18.75;;;13.25;;
10586;SDS011;5341;47.606;7.576;2023-12-04T00:13:05;17.13;;;13.45;;
10586;SDS011;5341;47.606;7.576;2023-12-04T00:15:32;16.70;;;13.32;;
10586;SDS011;5341;47.606;7.576;2023-12-04T00:18:00;17.95;;;13.05;;
10586;SDS011;5341;47.606;7.576;2023-12-04T00:20:28;15.52;;;12.13;;
10586;SDS011;5341;47.606;7.576;2023-12-04T00:22:57;18.50;;;13.20;;
10586;SDS011;5341;47.606;7.576;2023-12-04T00:25:24;17.70;;;13.38;;
10586;SDS011;5341;47.606;7.576;2023-12-04T00:27:52;18.75;;;14.48;;
10586;SDS011;5341;47.606;7.576;2023-12-04T00:30:21;18.77;;;14.00;;
10586;SDS011;5341;47.606;7.576;2023-12-04T00:32:49;19.02;;;14.05;;
10586;SDS011;5341;47.606;7.576;2023-12-04T00:35:16;18.80;;;14.18;;
10586;SDS011;5341;47.606;7.576;2023-12-04T00:37:44;19.88;;;14.18;;
10586;SDS011;5341;47.606;7.576;2023-12-04T00:40:14;20.55;;;14.75;;
10586;SDS011;5341;47.606;7.576;2023-12-04T00:42:43;18.40;;;13.80;;
10586;SDS011;5341;47.606;7.576;2023-12-04T00:45:12;21.35;;;14.00;;
10586;SDS011;5341;47.606;7.576;2023-12-04T00:47:40;21.60;;;14.80;;
10586;SDS011;5341;47.606;7.576;2023-12-04T00:50:08;19.92;;;14.82;;
10586;SDS011;5341;47.606;7.576;2023-12-04T00:52:36;21.23;;;14.88;;
10586;SDS011;5341;47.606;7.576;2023-12-04T00:55:04;20.73;;;14.30;;
10586;SDS011;5341;47.606;7.576;2023-12-04T00:57:33;20.63;;;14.60;;
10586;SDS011;5341;47.606;7.576;2023-12-04T01:00:01;21.27;;;15.30;;
10586;SDS011;5341;47.606;7.576;2023-12-04T01:02:29;21.40;;;14.80;;
10586;SDS011;5341;47.606;7.576;2023-12-04T01:04:57;20.50;;;15.10;;
10586;SDS011;5341;47.606;7.576;2023-12-04T01:07:25;22.10;;;15.45;;
10586;SDS011;5341;47.606;7.576;2023-12-04T01:09:53;20.17;;;14.70;;
10586;SDS011;5341;47.606;7.576;2023-12-04T01:12:21;19.98;;;14.68;;
10586;SDS011;5341;47.606;7.576;2023-12-04T01:14:51;19.63;;;14.10;;
10586;SDS011;5341;47.606;7.576;2023-12-04T01:17:22;18.45;;;14.10;;
10586;SDS011;5341;47.606;7.576;2023-12-04T01:19:50;18.27;;;13.57;;
10586;SDS011;5341;47.606;7.576;2023-12-04T01:22:18;17.67;;;13.13;;
10586;SDS011;5341;47.606;7.576;2023-12-04T01:24:45;17.42;;;13.05;;
10586;SDS011;5341;47.606;7.576;2023-12-04T01:27:14;19.58;;;14.27;;
10586;SDS011;5341;47.606;7.576;2023-12-04T01:29:42;19.25;;;13.82;;
10586;SDS011;5341;47.606;7.576;2023-12-04T01:32:12;18.67;;;14.00;;
10586;SDS011;5341;47.606;7.576;2023-12-04T01:34:40;20.20;;;14.25;;
10586;SDS011;5341;47.606;7.576;2023-12-04T01:37:08;18.30;;;13.68;;
10586;SDS011;5341;47.606;7.576;2023-12-04T01:39:37;19.58;;;13.80;;
10586;SDS011;5341;47.606;7.576;2023-12-04T01:42:06;18.63;;;13.82;;
10586;SDS011;5341;47.606;7.576;2023-12-04T01:44:36;19.92;;;14.32;;
10586;SDS011;5341;47.606;7.576;2023-12-04T01:47:08;18.13;;;13.55;;
10586;SDS011;5341;47.606;7.576;2023-12-04T01:49:39;21.33;;;14.55;;
10586;SDS011;5341;47.606;7.576;2023-12-04T01:52:07;21.77;;;14.10;;
10586;SDS011;5341;47.606;7.576;2023-12-04T01:54:35;18.15;;;14.63;;
10586;SDS011;5341;47.606;7.576;2023-12-04T01:57:05;22.80;;;14.82;;
10586;SDS011;5341;47.606;7.576;2023-12-04T01:59:36;18.33;;;14.48;;
10586;SDS011;5341;47.606;7.576;2023-12-04T02:02:04;19.27;;;14.48;;
10586;SDS011;5341;47.606;7.576;2023-12-04T02:04:33;20.67;;;14.40;;
10586;SDS011;5341;47.606;7.576;2023-12-04T02:07:04;20.08;;;14.25;;
10586;SDS011;5341;47.606;7.576;2023-12-04T02:09:35;18.90;;;13.80;;
10586;SDS011;5341;47.606;7.576;2023-12-04T02:12:05;22.08;;;14.75;;
10586;SDS011;5341;47.606;7.576;2023-12-04T02:14:33;19.05;;;14.25;;
10586;SDS011;5341;47.606;7.576;2023-12-04T02:17:01;20.13;;;14.57;;
10586;SDS011;5341;47.606;7.576;2023-12-04T02:19:32;19.40;;;13.95;;
10586;SDS011;5341;47.606;7.576;2023-12-04T02:22:00;18.95;;;14.25;;
10586;SDS011;5341;47.606;7.576;2023-12-04T02:24:34;19.42;;;14.25;;
10586;SDS011;5341;47.606;7.576;2023-12-04T02:27:04;20.00;;;14.40;;
10586;SDS011;5341;47.606;7.576;2023-12-04T02:29:44;20.00;;;13.98;;
10586;SDS011;5341;47.606;7.576;2023-12-04T02:32:18;17.55;;;14.13;;
10586;SDS011;5341;47.606;7.576;2023-12-04T02:34:51;20.80;;;14.40;;
10586;SDS011;5341;47.606;7.576;2023-12-04T02:37:21;20.73;;;14.88;;
10586;SDS011;5341;47.606;7.576;2023-12-04T02:39:53;22.15;;;14.32;;
10586;SDS011;5341;47.606;7.576;2023-12-04T02:42:28;20.50;;;13.93;;
10586;SDS011;5341;47.606;7.576;2023-12-04T02:44:57;19.50;;;13.95;;
10586;SDS011;5341;47.606;7.576;2023-12-04T02:47:31;18.83;;;13.68;;
10586;SDS011;5341;47.606;7.576;2023-12-04T02:50:03;19.27;;;13.82;;
10586;SDS011;5341;47.606;7.576;2023-12-04T02:52:31;20.10;;;14.13;;
10586;SDS011;5341;47.606;7.576;2023-12-04T02:55:01;19.13;;;14.35;;
10586;SDS011;5341;47.606;7.576;2023-12-04T02:57:31;21.48;;;14.80;;
10586;SDS011;5341;47.606;7.576;2023-12-04T03:00:07;20.20;;;14.30;;
10586;SDS011;5341;47.606;7.576;2023-12-04T03:02:45;19.70;;;14.32;;
10586;SDS011;5341;47.606;7.576;2023-12-04T03:05:14;20.33;;;14.52;;
10586;SDS011;5341;47.606;7.576;2023-12-04T03:07:42;19.77;;;14.85;;
10586;SDS011;5341;47.606;7.576;2023-12-04T03:12:59;20.17;;;13.55;;
10586;SDS011;5341;47.606;7.576;2023-12-04T03:15:28;19.33;;;14.00;;
10586;SDS011;5341;47.606;7.576;2023-12-04T03:18:00;19.77;;;14.15;;
10586;SDS011;5341;47.606;7.576;2023-12-04T03:20:29;21.00;;;14.98;;
10586;SDS011;5341;47.606;7.576;2023-12-04T03:22:56;19.65;;;14.45;;
10586;SDS011;5341;47.606;7.576;2023-12-04T03:25:25;20.85;;;14.82;;
10586;SDS011;5341;47.606;7.576;2023-12-04T03:27:57;21.42;;;15.32;;
10586;SDS011;5341;47.606;7.576;2023-12-04T03:30:24;19.80;;;13.70;;
10586;SDS011;5341;47.606;7.576;2023-12-04T03:32:53;19.90;;;14.05;;
10586;SDS011;5341;47.606;7.576;2023-12-04T03:35:22;18.92;;;13.82;;
10586;SDS011;5341;47.606;7.576;2023-12-04T03:37:50;19.02;;;13.63;;
10586;SDS011;5341;47.606;7.576;2023-12-04T03:40:18;19.30;;;13.95;;
10586;SDS011;5341;47.606;7.576;2023-12-04T03:42:46;20.67;;;14.23;;
10586;SDS011;5341;47.606;7.576;2023-12-04T03:45:21;21.20;;;14.93;;
10586;SDS011;5341;47.606;7.576;2023-12-04T03:47:51;21.67;;;15.18;;
10586;SDS011;5341;47.606;7.576;2023-12-04T03:50:19;19.98;;;14.52;;
10586;SDS011;5341;47.606;7.576;2023-12-04T03:52:48;19.77;;;14.48;;
10586;SDS011;5341;47.606;7.576;2023-12-04T03:55:17;21.08;;;14.70;;
10586;SDS011;5341;47.606;7.576;2023-12-04T03:57:45;20.13;;;14.48;;
10586;SDS011;5341;47.606;7.576;2023-12-04T04:00:14;20.00;;;14.63;;
10586;SDS011;5341;47.606;7.576;2023-12-04T04:02:48;19.83;;;13.77;;
10586;SDS011;5341;47.606;7.576;2023-12-04T04:05:16;22.27;;;15.52;;
10586;SDS011;5341;47.606;7.576;2023-12-04T04:07:46;18.95;;;14.13;;
10586;SDS011;5341;47.606;7.576;2023-12-04T04:10:13;21.60;;;14.93;;
10586;SDS011;5341;47.606;7.576;2023-12-04T04:12:41;19.60;;;13.90;;
10586;SDS011;5341;47.606;7.576;2023-12-04T04:15:09;19.67;;;14.88;;
10586;SDS011;5341;47.606;7.576;2023-12-04T04:17:37;19.02;;;13.52;;
10586;SDS011;5341;47.606;7.576;2023-12-04T04:20:07;22.42;;;15.25;;
10586;SDS011;5341;47.606;7.576;2023-12-04T04:22:38;19.02;;;13.85;;
10586;SDS011;5341;47.606;7.576;2023-12-04T04:25:06;21.90;;;15.18;;
10586;SDS011;5341;47.606;7.576;2023-12-04T04:27:34;19.67;;;14.05;;
10586;SDS011;5341;47.606;7.576;2023-12-04T04:30:03;20.52;;;14.55;;
10586;SDS011;5341;47.606;7.576;2023-12-04T04:32:32;19.92;;;14.07;;
10586;SDS011;5341;47.606;7.576;2023-12-04T04:35:04;19.83;;;14.25;;
10586;SDS011;5341;47.606;7.576;2023-12-04T04:37:33;21.67;;;14.93;;
10586;SDS011;5341;47.606;7.576;2023-12-04T04:40:03;20.55;;;14.88;;
10586;SDS011;5341;47.606;7.576;2023-12-04T04:42:31;20.33;;;14.63;;
10586;SDS011;5341;47.606;7.576;2023-12-04T04:44:59;21.17;;;14.73;;
10586;SDS011;5341;47.606;7.576;2023-12-04T04:47:28;21.15;;;14.88;;
10586;SDS011;5341;47.606;7.576;2023-12-04T04:49:56;22.15;;;14.90;;
10586;SDS011;5341;47.606;7.576;2023-12-04T04:52:25;21.23;;;14.85;;
10586;SDS011;5341;47.606;7.576;2023-12-04T04:54:54;21.88;;;15.40;;
10586;SDS011;5341;47.606;7.576;2023-12-04T04:57:24;21.73;;;15.23;;
10586;SDS011;5341;47.606;7.576;2023-12-04T04:59:51;21.02;;;15.10;;
10586;SDS011;5341;47.606;7.576;2023-12-04T05:02:20;22.00;;;15.68;;
10586;SDS011;5341;47.606;7.576;2023-12-04T05:04:48;19.67;;;14.27;;
10586;SDS011;5341;47.606;7.576;2023-12-04T05:07:15;21.08;;;14.52;;
10586;SDS011;5341;47.606;7.576;2023-12-04T05:09:43;21.88;;;14.43;;
10586;SDS011;5341;47.606;7.576;2023-12-04T05:12:12;21.27;;;14.60;;
10586;SDS011;5341;47.606;7.576;2023-12-04T05:14:40;22.33;;;14.98;;
10586;SDS011;5341;47.606;7.576;2023-12-04T05:17:07;20.40;;;14.63;;
10586;SDS011;5341;47.606;7.576;2023-12-04T05:19:36;21.17;;;14.80;;
10586;SDS011;5341;47.606;7.576;2023-12-04T05:22:03;21.40;;;14.63;;
10586;SDS011;5341;47.606;7.576;2023-12-04T05:24:31;22.08;;;14.77;;
10586;SDS011;5341;47.606;7.576;2023-12-04T05:26:59;22.40;;;15.38;;
10586;SDS011;5341;47.606;7.576;2023-12-04T05:29:28;21.95;;;14.63;;
10586;SDS011;5341;47.606;7.576;2023-12-04T05:31:56;21.80;;;14.77;;
10586;SDS011;5341;47.606;7.576;2023-12-04T05:34:24;22.52;;;15.35;;
10586;SDS011;5341;47.606;7.576;2023-12-04T05:36:53;20.25;;;14.13;;
10586;SDS011;5341;47.606;7.576;2023-12-04T05:39:20;20.98;;;14.40;;
10586;SDS011;5341;47.606;7.576;2023-12-04T05:41:48;19.98;;;14.38;;
10586;SDS011;5341;47.606;7.576;2023-12-04T05:44:16;21.85;;;15.30;;
10586;SDS011;5341;47.606;7.576;2023-12-04T05:46:45;20.92;;;14.48;;
10586;SDS011;5341;47.606;7.576;2023-12-04T05:49:12;21.42;;;15.60;;
10586;SDS011;5341;47.606;7.576;2023-12-04T05:51:40;21.55;;;15.50;;
10586;SDS011;5341;47.606;7.576;2023-12-04T05:54:08;19.83;;;14.18;;
10586;SDS011;5341;47.606;7.576;2023-12-04T05:56:35;21.35;;;15.15;;
10586;SDS011;5341;47.606;7.576;2023-12-04T05:59:03;20.92;;;14.38;;
10586;SDS011;5341;47.606;7.576;2023-12-04T06:01:32;20.95;;;14.20;;
10586;SDS011;5341;47.606;7.576;2023-12-04T06:04:02;20.98;;;14.13;;
10586;SDS011;5341;47.606;7.576;2023-12-04T06:06:30;21.13;;;14.52;;
10586;SDS011;5341;47.606;7.576;2023-12-04T06:08:57;21.20;;;14.20;;
10586;SDS011;5341;47.606;7.576;2023-12-04T06:11:25;20.65;;;14.20;;
10586;SDS011;5341;47.606;7.576;2023-12-04T06:13:53;23.60;;;15.45;;
10586;SDS011;5341;47.606;7.576;2023-12-04T06:16:22;21.55;;;15.13;;
10586;SDS011;5341;47.606;7.576;2023-12-04T06:18:50;19.65;;;13.35;;
10586;SDS011;5341;47.606;7.576;2023-12-04T06:21:19;19.50;;;13.90;;
10586;SDS011;5341;47.606;7.576;2023-12-04T06:23:47;22.05;;;14.60;;
10586;SDS011;5341;47.606;7.576;2023-12-04T06:26:15;21.20;;;14.75;;
10586;SDS011;5341;47.606;7.576;2023-12-04T06:28:47;23.15;;;15.35;;
10586;SDS011;5341;47.606;7.576;2023-12-04T06:31:15;20.40;;;14.70;;
10586;SDS011;5341;47.606;7.576;2023-12-04T06:33:44;19.75;;;13.90;;
10586;SDS011;5341;47.606;7.576;2023-12-04T06:36:18;20.38;;;14.00;;
10586;SDS011;5341;47.606;7.576;2023-12-04T06:38:49;21.92;;;14.77;;
10586;SDS011;5341;47.606;7.576;2023-12-04T06:41:20;21.02;;;14.82;;
10586;SDS011;5341;47.606;7.576;2023-12-04T06:43:49;23.15;;;14.95;;
10586;SDS011;5341;47.606;7.576;2023-12-04T06:46:17;20.73;;;14.77;;
10586;SDS011;5341;47.606;7.576;2023-12-04T06:48:51;19.27;;;13.85;;
10586;SDS011;5341;47.606;7.576;2023-12-04T06:51:23;21.67;;;14.73;;
10586;SDS011;5341;47.606;7.576;2023-12-04T06:53:50;23.05;;;15.38;;
10586;SDS011;5341;47.606;7.576;2023-12-04T06:56:18;21.85;;;14.52;;
10586;SDS011;5341;47.606;7.576;2023-12-04T06:58:46;22.67;;;15.15;;
10586;SDS011;5341;47.606;7.576;2023-12-04T07:01:14;22.25;;;14.98;;
10586;SDS011;5341;47.606;7.576;2023-12-04T07:03:42;23.25;;;15.18;;
10586;SDS011;5341;47.606;7.576;2023-12-04T07:06:09;18.80;;;13.60;;
10586;SDS011;5341;47.606;7.576;2023-12-04T07:08:42;21.20;;;14.70;;
10586;SDS011;5341;47.606;7.576;2023-12-04T07:11:11;20.05;;;13.68;;
10586;SDS011;5341;47.606;7.576;2023-12-04T07:13:40;20.33;;;14.52;;
10586;SDS011;5341;47.606;7.576;2023-12-04T07:16:10;22.23;;;14.88;;
10586;SDS011;5341;47.606;7.576;2023-12-04T07:18:49;21.17;;;13.52;;
10586;SDS011;5341;47.606;7.576;2023-12-04T07:21:18;21.58;;;14.57;;
10586;SDS011;5341;47.606;7.576;2023-12-04T07:23:55;23.98;;;13.82;;
10586;SDS011;5341;47.606;7.576;2023-12-04T07:26:23;22.40;;;14.27;;
10586;SDS011;5341;47.606;7.576;2023-12-04T07:28:54;20.88;;;14.32;;
10586;SDS011;5341;47.606;7.576;2023-12-04T07:31:22;19.85;;;13.85;;
10586;SDS011;5341;47.606;7.576;2023-12-04T07:33:54;20.40;;;13.32;;
10586;SDS011;5341;47.606;7.576;2023-12-04T07:36:26;20.13;;;13.50;;
10586;SDS011;5341;47.606;7.576;2023-12-04T07:38:55;22.27;;;15.32;;
10586;SDS011;5341;47.606;7.576;2023-12-04T07:41:27;22.00;;;14.57;;
10586;SDS011;5341;47.606;7.576;2023-12-04T07:44:00;20.90;;;14.93;;
10586;SDS011;5341;47.606;7.576;2023-12-04T07:46:30;19.77;;;14.27;;
10586;SDS011;5341;47.606;7.576;2023-12-04T07:48:57;21.08;;;14.43;;
10586;SDS011;5341;47.606;7.576;2023-12-04T07:51:29;22.42;;;14.60;;
10586;SDS011;5341;47.606;7.576;2023-12-04T07:54:05;21.00;;;14.23;;
10586;SDS011;5341;47.606;7.576;2023-12-04T07:56:36;22.15;;;14.63;;
10586;SDS011;5341;47.606;7.576;2023-12-04T07:59:06;20.92;;;15.10;;
10586;SDS011;5341;47.606;7.576;2023-12-04T08:01:33;22.38;;;14.68;;
10586;SDS011;5341;47.606;7.576;2023-12-04T08:04:11;21.60;;;14.93;;
10586;SDS011;5341;47.606;7.576;2023-12-04T08:06:40;23.15;;;15.57;;
10586;SDS011;5341;47.606;7.576;2023-12-04T08:09:09;20.60;;;14.48;;
10586;SDS011;5341;47.606;7.576;2023-12-04T08:11:39;22.63;;;14.65;;
10586;SDS011;5341;47.606;7.576;2023-12-04T08:14:13;23.52;;;15.38;;
10586;SDS011;5341;47.606;7.576;2023-12-04T08:16:41;21.35;;;14.70;;
10586;SDS011;5341;47.606;7.576;2023-12-04T08:19:09;19.83;;;14.38;;
10586;SDS011;5341;47.606;7.576;2023-12-04T08:21:37;20.20;;;15.10;;
10586;SDS011;5341;47.606;7.576;2023-12-04T08:24:05;22.60;;;14.60;;
10586;SDS011;5341;47.606;7.576;2023-12-04T08:26:35;19.73;;;13.77;;
10586;SDS011;5341;47.606;7.576;2023-12-04T08:29:03;20.55;;;13.75;;
10586;SDS011;5341;47.606;7.576;2023-12-04T08:31:31;19.63;;;13.43;;
10586;SDS011;5341;47.606;7.576;2023-12-04T08:33:59;18.60;;;13.65;;
10586;SDS011;5341;47.606;7.576;2023-12-04T08:36:29;20.50;;;14.25;;
10586;SDS011;5341;47.606;7.576;2023-12-04T08:38:56;21.60;;;14.15;;
10586;SDS011;5341;47.606;7.576;2023-12-04T08:41:24;19.90;;;14.23;;
10586;SDS011;5341;47.606;7.576;2023-12-04T08:43:55;22.67;;;15.30;;
10586;SDS011;5341;47.606;7.576;2023-12-04T08:46:23;25.23;;;15.13;;
10586;SDS011;5341;47.606;7.576;2023-12-04T08:48:50;23.40;;;15.55;;
10586;SDS011;5341;47.606;7.576;2023-12-04T08:51:18;20.67;;;14.95;;
10586;SDS011;5341;47.606;7.576;2023-12-04T08:53:45;21.52;;;14.57;;
10586;SDS011;5341;47.606;7.576;2023-12-04T08:56:13;23.30;;;14.98;;
10586;SDS011;5341;47.606;7.576;2023-12-04T08:58:41;23.52;;;14.82;;
10586;SDS011;5341;47.606;7.576;2023-12-04T09:01:10;21.33;;;14.68;;
10586;SDS011;5341;47.606;7.576;2023-12-04T09:03:38;19.73;;;13.90;;
10586;SDS011;5341;47.606;7.576;2023-12-04T09:06:06;20.13;;;14.43;;
10586;SDS011;5341;47.606;7.576;2023-12-04T09:08:36;23.75;;;14.32;;
10586;SDS011;5341;47.606;7.576;2023-12-04T09:11:04;19.90;;;14.35;;
10586;SDS011;5341;47.606;7.576;2023-12-04T09:13:33;22.35;;;14.45;;
10586;SDS011;5341;47.606;7.576;2023-12-04T09:16:01;18.77;;;13.18;;
10586;SDS011;5341;47.606;7.576;2023-12-04T09:18:30;19.27;;;13.52;;
10586;SDS011;5341;47.606;7.576;2023-12-04T09:21:00;19.02;;;13.45;;
10586;SDS011;5341;47.606;7.576;2023-12-04T09:23:29;18.42;;;13.73;;
10586;SDS011;5341;47.606;7.576;2023-12-04T09:25:57;18.02;;;13.02;;
10586;SDS011;5341;47.606;7.576;2023-12-04T09:28:24;20.58;;;12.95;;
10586;SDS011;5341;47.606;7.576;2023-12-04T09:30:52;15.73;;;11.63;;
10586;SDS011;5341;47.606;7.576;2023-12-04T09:33:20;18.67;;;12.25;;
10586;SDS011;5341;47.606;7.576;2023-12-04T09:35:48;16.27;;;12.23;;
10586;SDS011;5341;47.606;7.576;2023-12-04T09:38:16;17.90;;;12.27;;
10586;SDS011;5341;47.606;7.576;2023-12-04T09:40:44;19.20;;;11.70;;
10586;SDS011;5341;47.606;7.576;2023-12-04T09:43:12;17.33;;;12.07;;
10586;SDS011;5341;47.606;7.576;2023-12-04T09:45:40;16.30;;;11.68;;
10586;SDS011;5341;47.606;7.576;2023-12-04T09:48:08;18.92;;;12.02;;
10586;SDS011;5341;47.606;7.576;2023-12-04T09:50:37;17.80;;;12.32;;
10586;SDS011;5341;47.606;7.576;2023-12-04T09:53:08;19.15;;;12.73;;
10586;SDS011;5341;47.606;7.576;2023-12-04T09:55:39;16.08;;;12.38;;
10586;SDS011;5341;47.606;7.576;2023-12-04T09:58:07;17.35;;;12.60;;
10586;SDS011;5341;47.606;7.576;2023-12-04T10:00:36;17.65;;;12.52;;
10586;SDS011;5341;47.606;7.576;2023-12-04T10:03:04;17.05;;;12.52;;
10586;SDS011;5341;47.606;7.576;2023-12-04T10:05:32;17.35;;;12.73;;
10586;SDS011;5341;47.606;7.576;2023-12-04T10:07:59;19.75;;;13.23;;
10586;SDS011;5341;47.606;7.576;2023-12-04T10:10:29;17.25;;;12.60;;
10586;SDS011;5341;47.606;7.576;2023-12-04T10:12:56;17.98;;;12.02;;
10586;SDS011;5341;47.606;7.576;2023-12-04T10:15:24;17.20;;;12.57;;
10586;SDS011;5341;47.606;7.576;2023-12-04T10:17:51;20.10;;;12.68;;
10586;SDS011;5341;47.606;7.576;2023-12-04T10:20:20;17.35;;;12.05;;
10586;SDS011;5341;47.606;7.576;2023-12-04T10:22:53;18.17;;;12.32;;
10586;SDS011;5341;47.606;7.576;2023-12-04T10:25:22;17.42;;;12.25;;
10586;SDS011;5341;47.606;7.576;2023-12-04T10:27:52;19.15;;;12.73;;
10586;SDS011;5341;47.606;7.576;2023-12-04T10:30:24;14.32;;;10.63;;
10586;SDS011;5341;47.606;7.576;2023-12-04T10:32:56;15.52;;;11.65;;
10586;SDS011;5341;47.606;7.576;2023-12-04T10:35:26;14.18;;;10.35;;
10586;SDS011;5341;47.606;7.576;2023-12-04T10:37:57;14.93;;;10.80;;
10586;SDS011;5341;47.606;7.576;2023-12-04T10:40:25;14.60;;;10.40;;
10586;SDS011;5341;47.606;7.576;2023-12-04T10:43:09;16.42;;;10.95;;
10586;SDS011;5341;47.606;7.576;2023-12-04T10:45:38;14.15;;;10.35;;
10586;SDS011;5341;47.606;7.576;2023-12-04T10:48:06;15.02;;;10.73;;
10586;SDS011;5341;47.606;7.576;2023-12-04T10:50:34;14.15;;;11.07;;
10586;SDS011;5341;47.606;7.576;2023-12-04T10:53:03;14.27;;;11.02;;
10586;SDS011;5341;47.606;7.576;2023-12-04T10:55:31;14.52;;;11.13;;
10586;SDS011;5341;47.606;7.576;2023-12-04T10:58:00;15.43;;;11.23;;
10586;SDS011;5341;47.606;7.576;2023-12-04T11:00:32;13.80;;;10.68;;
10586;SDS011;5341;47.606;7.576;2023-12-04T11:03:03;17.00;;;11.00;;
10586;SDS011;5341;47.606;7.576;2023-12-04T11:05:35;16.52;;;11.93;;
10586;SDS011;5341;47.606;7.576;2023-12-04T11:08:05;15.30;;;11.18;;
10586;SDS011;5341;47.606;7.576;2023-12-04T11:10:36;16.08;;;11.20;;
10586;SDS011;5341;47.606;7.576;2023-12-04T11:13:10;14.52;;;10.77;;
10586;SDS011;5341;47.606;7.576;2023-12-04T11:15:42;15.50;;;10.88;;
10586;SDS011;5341;47.606;7.576;2023-12-04T11:18:15;17.30;;;11.48;;
10586;SDS011;5341;47.606;7.576;2023-12-04T11:20:49;15.73;;;11.50;;
10586;SDS011;5341;47.606;7.576;2023-12-04T11:23:22;16.45;;;11.25;;
10586;SDS011;5341;47.606;7.576;2023-12-04T11:25:50;15.80;;;11.82;;
10586;SDS011;5341;47.606;7.576;2023-12-04T11:28:20;16.02;;;11.90;;
10586;SDS011;5341;47.606;7.576;2023-12-04T11:30:48;16.75;;;12.07;;
10586;SDS011;5341;47.606;7.576;2023-12-04T11:33:16;16.92;;;11.80;;
10586;SDS011;5341;47.606;7.576;2023-12-04T11:35:49;15.55;;;11.27;;
10586;SDS011;5341;47.606;7.576;2023-12-04T11:38:17;16.42;;;11.55;;
10586;SDS011;5341;47.606;7.576;2023-12-04T11:40:46;15.43;;;11.95;;
10586;SDS011;5341;47.606;7.576;2023-12-04T11:43:23;15.13;;;11.57;;
10586;SDS011;5341;47.606;7.576;2023-12-04T11:45:52;16.23;;;11.65;;
10586;SDS011;5341;47.606;7.576;2023-12-04T11:48:22;15.80;;;11.35;;
10586;SDS011;5341;47.606;7.576;2023-12-04T11:50:50;15.43;;;11.18;;
10586;SDS011;5341;47.606;7.576;2023-12-04T11:53:18;16.35;;;11.85;;
10586;SDS011;5341;47.606;7.576;2023-12-04T11:55:45;17.58;;;12.38;;
10586;SDS011;5341;47.606;7.576;2023-12-04T11:58:13;17.23;;;12.02;;
10586;SDS011;5341;47.606;7.576;2023-12-04T12:00:44;17.23;;;12.13;;
10586;SDS011;5341;47.606;7.576;2023-12-04T12:03:14;17.80;;;12.63;;
10586;SDS011;5341;47.606;7.576;2023-12-04T12:05:42;17.35;;;12.70;;
10586;SDS011;5341;47.606;7.576;2023-12-04T12:08:11;17.95;;;12.88;;
10586;SDS011;5341;47.606;7.576;2023-12-04T12:10:39;16.98;;;12.60;;
10586;SDS011;5341;47.606;7.576;2023-12-04T12:13:07;19.23;;;13.15;;
10586;SDS011;5341;47.606;7.576;2023-12-04T12:15:37;17.33;;;12.90;;
10586;SDS011;5341;47.606;7.576;2023-12-04T12:18:07;18.73;;;12.68;;
10586;SDS011;5341;47.606;7.576;2023-12-04T12:20:36;17.33;;;12.38;;
10586;SDS011;5341;47.606;7.576;2023-12-04T12:23:04;18.40;;;12.32;;
10586;SDS011;5341;47.606;7.576;2023-12-04T12:25:37;15.57;;;11.77;;
10586;SDS011;5341;47.606;7.576;2023-12-04T12:28:05;17.33;;;12.45;;
10586;SDS011;5341;47.606;7.576;2023-12-04T12:30:33;20.35;;;12.50;;
10586;SDS011;5341;47.606;7.576;2023-12-04T12:33:00;17.67;;;12.43;;
10586;SDS011;5341;47.606;7.576;2023-12-04T12:35:31;17.33;;;12.05;;
10586;SDS011;5341;47.606;7.576;2023-12-04T12:37:58;15.48;;;11.35;;
10586;SDS011;5341;47.606;7.576;2023-12-04T12:40:27;15.63;;;11.48;;
10586;SDS011;5341;47.606;7.576;2023-12-04T12:43:03;16.95;;;12.57;;
10586;SDS011;5341;47.606;7.576;2023-12-04T12:45:38;17.33;;;11.63;;
10586;SDS011;5341;47.606;7.576;2023-12-04T12:48:09;17.75;;;12.32;;
10586;SDS011;5341;47.606;7.576;2023-12-04T12:50:40;16.23;;;12.10;;
10586;SDS011;5341;47.606;7.576;2023-12-04T12:53:08;18.02;;;12.95;;
10586;SDS011;5341;47.606;7.576;2023-12-04T12:55:38;18.63;;;12.73;;
10586;SDS011;5341;47.606;7.576;2023-12-04T12:58:05;16.17;;;11.95;;
10586;SDS011;5341;47.606;7.576;2023-12-04T13:00:46;17.85;;;12.50;;
10586;SDS011;5341;47.606;7.576;2023-12-04T13:03:14;17.60;;;12.25;;
10586;SDS011;5341;47.606;7.576;2023-12-04T13:05:43;20.77;;;12.90;;
10586;SDS011;5341;47.606;7.576;2023-12-04T13:08:11;18.60;;;13.00;;
10586;SDS011;5341;47.606;7.576;2023-12-04T13:10:40;17.30;;;12.55;;
10586;SDS011;5341;47.606;7.576;2023-12-04T13:13:11;19.55;;;13.32;;
10586;SDS011;5341;47.606;7.576;2023-12-04T13:15:39;18.95;;;13.27;;
10586;SDS011;5341;47.606;7.576;2023-12-04T13:18:10;18.73;;;13.15;;
10586;SDS011;5341;47.606;7.576;2023-12-04T13:20:38;18.35;;;13.25;;
10586;SDS011;5341;47.606;7.576;2023-12-04T13:23:07;18.70;;;13.07;;
10586;SDS011;5341;47.606;7.576;2023-12-04T13:25:35;18.58;;;12.70;;
10586;SDS011;5341;47.606;7.576;2023-12-04T13:28:05;20.60;;;13.52;;
10586;SDS011;5341;47.606;7.576;2023-12-04T13:30:42;18.20;;;12.80;;
10586;SDS011;5341;47.606;7.576;2023-12-04T13:35:58;18.02;;;12.60;;
10586;SDS011;5341;47.606;7.576;2023-12-04T13:38:27;17.50;;;12.25;;
10586;SDS011;5341;47.606;7.576;2023-12-04T13:43:54;16.92;;;12.25;;
10586;SDS011;5341;47.606;7.576;2023-12-04T13:46:25;15.32;;;11.52;;
10586;SDS011;5341;47.606;7.576;2023-12-04T13:48:56;16.33;;;11.50;;
10586;SDS011;5341;47.606;7.576;2023-12-04T13:51:30;16.20;;;11.25;;
10586;SDS011;5341;47.606;7.576;2023-12-04T13:54:07;14.50;;;10.40;;
10586;SDS011;5341;47.606;7.576;2023-12-04T13:56:51;17.15;;;11.32;;
10586;SDS011;5341;47.606;7.576;2023-12-04T13:59:23;15.45;;;10.43;;
10586;SDS011;5341;47.606;7.576;2023-12-04T14:01:59;14.30;;;11.27;;
10586;SDS011;5341;47.606;7.576;2023-12-04T14:04:29;16.33;;;11.23;;
10586;SDS011;5341;47.606;7.576;2023-12-04T14:06:57;18.10;;;11.13;;
10586;SDS011;5341;47.606;7.576;2023-12-04T14:12:22;17.48;;;12.25;;
10586;SDS011;5341;47.606;7.576;2023-12-04T14:14:52;16.90;;;12.02;;
10586;SDS011;5341;47.606;7.576;2023-12-04T14:17:28;17.58;;;12.45;;
10586;SDS011;5341;47.606;7.576;2023-12-04T14:19:59;20.38;;;13.40;;
10586;SDS011;5341;47.606;7.576;2023-12-04T14:22:46;20.90;;;13.32;;
10586;SDS011;5341;47.606;7.576;2023-12-04T14:28:02;15.25;;;10.80;;
10586;SDS011;5341;47.606;7.576;2023-12-04T14:30:30;17.15;;;11.65;;
10586;SDS011;5341;47.606;7.576;2023-12-04T14:32:58;17.50;;;11.85;;
10586;SDS011;5341;47.606;7.576;2023-12-04T14:37:59;17.65;;;11.55;;
10586;SDS011;5341;47.606;7.576;2023-12-04T14:42:56;17.83;;;12.07;;
10586;SDS011;5341;47.606;7.576;2023-12-04T14:45:25;15.55;;;11.25;;
10586;SDS011;5341;47.606;7.576;2023-12-04T14:47:52;14.90;;;11.35;;
10586;SDS011;5341;47.606;7.576;2023-12-04T14:50:30;17.35;;;11.38;;
10586;SDS011;5341;47.606;7.576;2023-12-04T14:53:01;17.15;;;11.60;;
10586;SDS011;5341;47.606;7.576;2023-12-04T14:55:42;16.58;;;11.60;;
10586;SDS011;5341;47.606;7.576;2023-12-04T14:58:27;14.07;;;10.63;;
10586;SDS011;5341;47.606;7.576;2023-12-04T15:01:13;15.70;;;11.27;;
10586;SDS011;5341;47.606;7.576;2023-12-04T15:04:00;15.38;;;10.60;;
10586;SDS011;5341;47.606;7.576;2023-12-04T15:06:52;13.68;;;10.48;;